createdAt,value
2019-04-06T00:02:04.226Z,18.43
2019-04-06T00:04:32.271Z,19.50
2019-04-06T00:07:00.342Z,18.93
2019-04-06T00:09:28.411Z,19.10
2019-04-06T00:11:56.454Z,19.53
2019-04-06T00:14:24.506Z,18.27
2019-04-06T00:16:52.615Z,18.00
2019-04-06T00:19:20.734Z,19.70
2019-04-06T00:21:48.777Z,19.70
2019-04-06T00:24:16.838Z,18.73
2019-04-06T00:26:44.896Z,19.23
2019-04-06T00:29:12.948Z,18.73
2019-04-06T00:31:45.470Z,18.93
2019-04-06T00:34:13.525Z,19.23
2019-04-06T00:36:41.597Z,19.20
2019-04-06T00:39:09.724Z,20.17
2019-04-06T00:41:37.767Z,19.60
2019-04-06T00:44:05.846Z,19.43
2019-04-06T00:46:33.892Z,19.33
2019-04-06T00:49:01.953Z,18.83
2019-04-06T00:51:31.030Z,19.93
2019-04-06T00:53:59.194Z,18.80
2019-04-06T00:56:27.267Z,19.10
2019-04-06T00:58:55.301Z,19.83
2019-04-06T01:01:23.365Z,20.30
2019-04-06T01:03:51.410Z,19.27
2019-04-06T01:06:19.457Z,19.57
2019-04-06T01:08:47.518Z,20.03
2019-04-06T01:11:15.583Z,20.53
2019-04-06T01:13:43.638Z,20.70
2019-04-06T01:16:11.738Z,20.23
2019-04-06T01:18:39.806Z,19.80
2019-04-06T01:21:07.845Z,20.03
2019-04-06T01:23:35.895Z,19.30
2019-04-06T01:26:07.574Z,20.63
2019-04-06T01:28:33.778Z,20.17
2019-04-06T01:31:01.830Z,19.77
2019-04-06T01:33:29.882Z,19.03
2019-04-06T01:35:57.938Z,20.03
2019-04-06T01:38:26.018Z,18.97
2019-04-06T01:40:54.094Z,18.23
2019-04-06T01:43:22.130Z,18.77
2019-04-06T01:45:50.186Z,18.13
2019-04-06T01:48:18.250Z,19.40
2019-04-06T01:50:46.311Z,17.80
2019-04-06T01:53:14.368Z,20.17
2019-04-06T01:55:42.440Z,18.07
2019-04-06T01:58:10.496Z,18.73
2019-04-06T02:00:40.186Z,19.70
2019-04-06T02:03:08.242Z,20.57
2019-04-06T02:05:36.559Z,20.33
2019-04-06T02:08:04.614Z,19.67
2019-04-06T02:10:32.689Z,17.77
2019-04-06T02:13:00.753Z,19.07
2019-04-06T02:15:28.796Z,18.27
2019-04-06T02:17:56.850Z,19.03
2019-04-06T02:20:25.011Z,18.33
2019-04-06T02:22:53.118Z,17.67
2019-04-06T02:25:21.178Z,19.27
2019-04-06T02:27:49.290Z,20.20
2019-04-06T02:30:31.048Z,20.13
2019-04-06T02:33:15.661Z,18.97
2019-04-06T02:35:55.224Z,19.03
2019-04-06T02:38:24.919Z,18.37
2019-04-06T02:41:09.455Z,19.40
2019-04-06T02:43:39.357Z,20.60
2019-04-06T02:46:07.404Z,19.60
2019-04-06T02:48:35.466Z,19.00
2019-04-06T02:51:03.585Z,19.33
2019-04-06T02:53:31.750Z,19.07
2019-04-06T02:55:59.806Z,19.87
2019-04-06T02:58:27.918Z,18.80
2019-04-06T03:00:56.005Z,18.90
2019-04-06T03:03:24.058Z,18.73
2019-04-06T03:05:52.189Z,19.37
2019-04-06T03:08:20.265Z,18.70
2019-04-06T03:10:48.389Z,20.47
2019-04-06T03:13:16.478Z,19.37
2019-04-06T03:15:44.536Z,19.60
2019-04-06T03:18:12.579Z,19.13
2019-04-06T03:20:40.684Z,19.63
2019-04-06T03:23:08.869Z,18.13
2019-04-06T03:25:36.920Z,18.90
2019-04-06T03:28:05.134Z,19.47
2019-04-06T03:30:33.142Z,18.40
2019-04-06T03:33:01.242Z,17.93
2019-04-06T03:35:29.670Z,18.77
2019-04-06T03:37:57.974Z,18.23
2019-04-06T03:40:26.186Z,19.83
2019-04-06T03:42:54.347Z,18.47
2019-04-06T03:45:22.509Z,19.73
2019-04-06T03:47:50.550Z,19.77
2019-04-06T03:50:18.611Z,18.17
2019-04-06T03:52:46.655Z,19.93
2019-04-06T03:55:14.768Z,19.97
2019-04-06T03:57:42.825Z,20.53
2019-04-06T04:00:11.079Z,19.63
2019-04-06T04:02:39.137Z,20.30
2019-04-06T04:05:07.367Z,19.77
2019-04-06T04:07:35.449Z,18.13
2019-04-06T04:10:04.988Z,19.47
2019-04-06T04:12:33.048Z,19.97
2019-04-06T04:15:01.120Z,18.53
2019-04-06T04:17:29.352Z,19.97
2019-04-06T04:19:57.536Z,24.97
2019-04-06T04:22:25.648Z,20.57
2019-04-06T04:24:53.719Z,19.57
2019-04-06T04:27:28.409Z,18.93
2019-04-06T04:29:51.688Z,19.63
2019-04-06T04:32:19.730Z,20.13
2019-04-06T04:34:47.785Z,18.90
2019-04-06T04:37:15.834Z,19.83
2019-04-06T04:39:43.905Z,18.47
2019-04-06T04:42:11.944Z,19.07
2019-04-06T04:44:40.003Z,17.73
2019-04-06T04:47:08.363Z,17.33
2019-04-06T04:49:36.510Z,17.70
2019-04-06T04:52:04.614Z,17.27
2019-04-06T04:54:32.654Z,18.67
2019-04-06T04:57:00.716Z,18.80
2019-04-06T04:59:28.762Z,18.53
2019-04-06T05:01:56.810Z,18.27
2019-04-06T05:04:24.905Z,19.30
2019-04-06T05:06:52.972Z,18.53
2019-04-06T05:09:21.047Z,24.33
2019-04-06T05:11:49.326Z,23.10
2019-04-06T05:14:35.691Z,20.73
2019-04-06T05:17:03.790Z,19.90
2019-04-06T05:19:31.846Z,19.20
2019-04-06T05:21:59.892Z,18.60
2019-04-06T05:24:27.950Z,26.37
2019-04-06T05:26:56.003Z,32.63
2019-04-06T05:29:24.055Z,23.70
2019-04-06T05:31:52.125Z,20.73
2019-04-06T05:34:20.193Z,19.77
2019-04-06T05:36:48.280Z,22.80
2019-04-06T05:39:16.347Z,33.90
2019-04-06T05:41:44.394Z,20.60
2019-04-06T05:44:12.490Z,18.57
2019-04-06T05:46:40.562Z,18.47
2019-04-06T05:49:08.614Z,19.20
2019-04-06T05:51:38.516Z,19.53
2019-04-06T05:54:06.580Z,19.93
2019-04-06T05:56:34.877Z,19.43
2019-04-06T05:59:03.029Z,19.40
2019-04-06T06:01:31.046Z,19.53
2019-04-06T06:03:59.102Z,18.63
2019-04-06T06:06:27.420Z,19.50
2019-04-06T06:08:55.634Z,20.27
2019-04-06T06:11:23.712Z,20.07
2019-04-06T06:13:51.770Z,20.77
2019-04-06T06:16:19.823Z,19.80
2019-04-06T06:18:47.881Z,20.60
2019-04-06T06:21:15.977Z,20.20
2019-04-06T06:23:44.215Z,20.17
2019-04-06T06:26:12.415Z,19.43
2019-04-06T06:28:40.588Z,20.70
2019-04-06T06:31:08.686Z,20.60
2019-04-06T06:33:36.740Z,22.37
2019-04-06T06:36:04.905Z,21.60
2019-04-06T06:38:32.979Z,21.47
2019-04-06T06:41:01.069Z,21.67
2019-04-06T06:43:29.197Z,21.53
2019-04-06T06:45:57.217Z,21.73
2019-04-06T06:48:25.281Z,22.50
2019-04-06T06:50:53.345Z,20.50
2019-04-06T06:53:21.398Z,33.23
2019-04-06T06:55:49.547Z,27.17
2019-04-06T06:58:25.381Z,21.43
2019-04-06T07:00:47.414Z,21.77
2019-04-06T07:03:15.590Z,21.23
2019-04-06T07:05:43.662Z,20.47
2019-04-06T07:08:11.798Z,20.53
2019-04-06T07:10:39.896Z,22.73
2019-04-06T07:13:08.002Z,20.00
2019-04-06T07:15:36.060Z,22.70
2019-04-06T07:18:04.162Z,20.37
2019-04-06T07:20:32.321Z,21.50
2019-04-06T07:23:00.370Z,21.10
2019-04-06T07:25:28.412Z,21.23
2019-04-06T07:27:56.850Z,21.57
2019-04-06T07:30:24.958Z,20.60
2019-04-06T07:32:55.341Z,21.13
2019-04-06T07:35:22.850Z,18.97
2019-04-06T07:37:50.925Z,20.00
2019-04-06T07:40:19.198Z,20.63
2019-04-06T07:42:47.242Z,21.17
2019-04-06T07:45:15.371Z,21.03
2019-04-06T07:47:44.086Z,20.30
2019-04-06T07:50:12.204Z,20.57
2019-04-06T07:52:40.259Z,19.73
2019-04-06T07:55:08.378Z,20.27
2019-04-06T07:57:36.444Z,20.20
2019-04-06T08:00:07.595Z,20.57
2019-04-06T08:02:35.646Z,21.20
2019-04-06T08:05:04.434Z,19.93
2019-04-06T08:07:32.494Z,21.50
2019-04-06T08:10:00.600Z,20.83
2019-04-06T08:12:28.646Z,19.37
2019-04-06T08:14:57.517Z,21.23
2019-04-06T08:17:25.639Z,19.53
2019-04-06T08:19:53.707Z,20.47
2019-04-06T08:22:21.754Z,20.07
2019-04-06T08:24:49.823Z,20.33
2019-04-06T08:27:17.887Z,20.57
2019-04-06T08:29:45.943Z,20.70
2019-04-06T08:32:13.995Z,20.93
2019-04-06T08:34:42.070Z,20.27
2019-04-06T08:37:10.233Z,20.20
2019-04-06T08:39:38.382Z,20.10
2019-04-06T08:42:06.601Z,19.93
2019-04-06T08:44:34.772Z,19.93
2019-04-06T08:47:02.868Z,18.90
2019-04-06T08:49:30.938Z,19.90
2019-04-06T08:51:58.990Z,18.73
2019-04-06T08:54:27.050Z,19.37
2019-04-06T08:56:55.098Z,18.47
2019-04-06T08:59:23.254Z,18.57
2019-04-06T09:01:51.343Z,20.80
2019-04-06T09:04:19.398Z,19.53
2019-04-06T09:06:47.577Z,18.67
2019-04-06T09:09:15.632Z,18.73
2019-04-06T09:12:03.628Z,18.57
2019-04-06T09:14:31.771Z,18.33
2019-04-06T09:16:59.827Z,18.63
2019-04-06T09:19:27.900Z,19.40
2019-04-06T09:21:55.948Z,18.57
2019-04-06T09:24:24.084Z,18.50
2019-04-06T09:26:52.135Z,21.00
2019-04-06T09:29:23.575Z,19.17
2019-04-06T09:31:49.961Z,18.50
2019-04-06T09:34:18.005Z,19.07
2019-04-06T09:36:46.231Z,17.70
2019-04-06T09:39:14.309Z,19.53
2019-04-06T09:41:42.534Z,19.03
2019-04-06T09:44:12.783Z,17.53
2019-04-06T09:46:58.850Z,18.63
2019-04-06T09:49:28.530Z,16.30
2019-04-06T09:52:01.212Z,19.70
2019-04-06T09:54:30.910Z,18.07
2019-04-06T09:57:17.121Z,18.70
2019-04-06T09:59:48.380Z,21.73
2019-04-06T10:02:33.185Z,17.83
2019-04-06T10:05:03.105Z,18.07
2019-04-06T10:07:50.590Z,20.13
2019-04-06T10:10:36.271Z,19.77
2019-04-06T10:13:15.758Z,20.20
2019-04-06T10:15:51.478Z,18.37
2019-04-06T10:18:33.541Z,20.43
2019-04-06T10:21:03.226Z,22.20
2019-04-06T10:23:47.967Z,19.50
2019-04-06T10:26:34.090Z,20.47
2019-04-06T10:29:03.787Z,20.50
2019-04-06T10:31:33.688Z,20.67
2019-04-06T10:34:18.906Z,20.73
2019-04-06T10:36:48.594Z,21.07
2019-04-06T10:39:27.377Z,20.27
2019-04-06T10:41:57.102Z,22.47
2019-04-06T10:44:35.910Z,21.40
2019-04-06T10:47:23.811Z,19.20
2019-04-06T10:49:53.570Z,21.27
2019-04-06T10:52:38.070Z,20.67
2019-04-06T10:55:08.200Z,21.10
2019-04-06T10:57:37.909Z,21.07
2019-04-06T11:00:07.775Z,20.13
2019-04-06T11:02:52.301Z,20.27
2019-04-06T11:05:21.986Z,20.63
2019-04-06T11:07:51.739Z,20.40
2019-04-06T11:10:38.027Z,21.03
2019-04-06T11:13:23.849Z,20.53
2019-04-06T11:16:02.703Z,21.67
2019-04-06T11:18:32.437Z,20.20
2019-04-06T11:21:02.099Z,18.57
2019-04-06T11:23:37.715Z,20.30
2019-04-06T11:26:16.527Z,19.50
2019-04-06T11:28:46.270Z,19.23
2019-04-06T11:31:22.187Z,18.67
2019-04-06T11:33:54.645Z,18.67
2019-04-06T11:36:33.343Z,20.20
2019-04-06T11:39:17.866Z,20.00
2019-04-06T11:41:50.405Z,19.57
2019-04-06T11:44:20.098Z,19.07
2019-04-06T11:47:07.670Z,16.87
2019-04-06T11:49:46.132Z,18.30
2019-04-06T11:52:15.829Z,17.70
2019-04-06T11:54:48.259Z,18.33
2019-04-06T11:57:23.902Z,19.27
2019-04-06T11:59:53.561Z,21.53
2019-04-06T12:02:26.303Z,21.13
2019-04-06T12:04:58.654Z,21.50
2019-04-06T12:07:31.169Z,21.17
2019-04-06T12:10:17.072Z,19.97
2019-04-06T12:13:01.686Z,20.37
2019-04-06T12:15:34.042Z,21.93
2019-04-06T12:18:12.471Z,19.97
2019-04-06T12:20:50.866Z,17.47
2019-04-06T12:23:30.056Z,18.63
2019-04-06T12:26:00.910Z,18.63
2019-04-06T12:28:36.798Z,17.57
2019-04-06T12:31:06.485Z,16.10
2019-04-06T12:33:52.918Z,16.07
2019-04-06T12:36:22.607Z,15.87
2019-04-06T12:38:55.303Z,16.17
2019-04-06T12:41:25.009Z,15.70
2019-04-06T12:44:06.807Z,15.33
2019-04-06T12:46:45.291Z,15.03
2019-04-06T12:49:17.951Z,16.63
2019-04-06T12:52:06.876Z,14.73
2019-04-06T12:54:36.581Z,14.33
2019-04-06T12:57:12.231Z,15.17
2019-04-06T12:59:41.934Z,15.23
2019-04-06T13:02:17.624Z,15.57
2019-04-06T13:05:03.602Z,16.83
2019-04-06T13:07:33.285Z,17.23
2019-04-06T13:10:12.075Z,17.27
2019-04-06T13:12:48.368Z,17.23
2019-04-06T13:15:18.066Z,16.77
2019-04-06T13:17:59.530Z,18.43
2019-04-06T13:20:29.238Z,17.00
2019-04-06T13:23:10.782Z,17.27
2019-04-06T13:25:56.810Z,15.90
2019-04-06T13:28:38.784Z,15.37
2019-04-06T13:31:17.597Z,15.63
2019-04-06T13:33:53.860Z,16.00
2019-04-06T13:36:41.609Z,14.23
2019-04-06T13:39:17.070Z,15.87
2019-04-06T13:41:46.750Z,15.03
2019-04-06T13:44:25.158Z,16.03
2019-04-06T13:46:56.862Z,15.40
2019-04-06T13:49:42.538Z,15.30
2019-04-06T13:52:21.713Z,15.37
2019-04-06T13:55:06.649Z,16.77
2019-04-06T13:57:39.147Z,15.80
2019-04-06T14:00:19.213Z,15.47
2019-04-06T14:02:49.167Z,14.90
2019-04-06T14:05:22.022Z,13.73
2019-04-06T14:08:09.620Z,14.00
2019-04-06T14:10:42.124Z,15.40
2019-04-06T14:13:12.264Z,13.77
2019-04-06T14:16:00.088Z,15.43
2019-04-06T14:18:29.774Z,16.33
2019-04-06T14:21:14.401Z,16.23
2019-04-06T14:23:49.726Z,16.10
2019-04-06T14:26:25.455Z,14.60
2019-04-06T14:28:55.201Z,14.93
2019-04-06T14:31:34.277Z,14.53
2019-04-06T14:34:09.740Z,13.80
2019-04-06T14:36:39.438Z,15.17
2019-04-06T14:39:21.090Z,15.87
2019-04-06T14:41:59.813Z,13.87
2019-04-06T14:44:35.502Z,14.23
2019-04-06T14:47:08.430Z,13.97
2019-04-06T14:49:54.330Z,13.70
2019-04-06T14:52:24.094Z,13.40
2019-04-06T14:54:56.620Z,13.90
2019-04-06T14:57:26.512Z,13.83
2019-04-06T14:59:59.246Z,13.30
2019-04-06T15:02:40.918Z,13.30
2019-04-06T15:05:10.691Z,13.30
2019-04-06T15:07:40.389Z,12.67
2019-04-06T15:10:10.122Z,11.70
2019-04-06T15:12:45.786Z,12.37
2019-04-06T15:15:30.597Z,13.53
2019-04-06T15:18:06.781Z,12.30
2019-04-06T15:20:39.473Z,11.43
2019-04-06T15:23:12.381Z,11.77
2019-04-06T15:25:42.307Z,12.77
2019-04-06T15:30:53.234Z,12.27
2019-04-06T15:33:40.767Z,14.30
2019-04-06T15:36:10.630Z,11.43
2019-04-06T15:38:46.266Z,13.10
2019-04-06T15:41:32.190Z,14.57
2019-04-06T15:44:05.020Z,13.63
2019-04-06T15:46:37.178Z,12.23
2019-04-06T15:49:18.942Z,12.00
2019-04-06T15:51:53.552Z,12.63
2019-04-06T15:54:23.525Z,11.80
2019-04-06T15:57:02.179Z,13.63
2019-04-06T15:59:35.180Z,12.07
2019-04-06T16:02:04.938Z,11.87
2019-04-06T16:04:51.895Z,13.03
2019-04-06T16:07:33.383Z,11.73
2019-04-06T16:10:14.296Z,11.93
2019-04-06T16:12:59.185Z,10.37
2019-04-06T16:15:31.877Z,11.30
2019-04-06T16:18:02.161Z,11.83
2019-04-06T16:20:44.184Z,11.20
2019-04-06T16:23:13.846Z,11.20
2019-04-06T16:25:55.342Z,12.10
2019-04-06T16:28:40.430Z,10.73
2019-04-06T16:31:26.637Z,10.50
2019-04-06T16:33:59.293Z,10.87
2019-04-06T16:36:45.390Z,8.57
2019-04-06T16:39:15.126Z,11.40
2019-04-06T16:41:50.460Z,8.63
2019-04-06T16:44:20.307Z,9.53
2019-04-06T16:46:52.919Z,9.13
2019-04-06T16:49:23.369Z,12.70
2019-04-06T16:52:10.062Z,9.00
2019-04-06T16:54:57.818Z,18.93
2019-04-06T16:57:36.757Z,10.77
2019-04-06T17:00:19.698Z,10.13
2019-04-06T17:02:57.680Z,11.73
2019-04-06T17:05:44.271Z,14.30
2019-04-06T17:08:37.631Z,11.57
2019-04-06T17:11:07.340Z,11.63
2019-04-06T17:13:39.883Z,12.57
2019-04-06T17:16:26.237Z,12.47
2019-04-06T17:18:55.927Z,12.53
2019-04-06T17:21:29.102Z,12.50
2019-04-06T17:24:15.334Z,11.67
2019-04-06T17:27:00.292Z,11.50
2019-04-06T17:29:32.704Z,9.87
2019-04-06T17:32:05.635Z,10.83
2019-04-06T17:34:38.459Z,10.40
2019-04-06T17:37:08.270Z,10.47
2019-04-06T17:39:54.967Z,11.37
2019-04-06T17:42:41.618Z,10.73
2019-04-06T17:45:17.490Z,9.73
2019-04-06T17:47:47.493Z,9.73
2019-04-06T17:50:26.955Z,10.70
2019-04-06T17:53:13.546Z,10.43
2019-04-06T17:55:45.944Z,10.93
2019-04-06T17:58:18.834Z,10.77
2019-04-06T18:01:05.310Z,10.10
2019-04-06T18:03:35.026Z,10.03
2019-04-06T18:06:04.781Z,10.37
2019-04-06T18:08:46.326Z,10.53
2019-04-06T18:11:33.897Z,10.70
2019-04-06T18:14:02.046Z,10.90
2019-04-06T18:16:31.734Z,10.20
2019-04-06T18:19:00.262Z,9.97
2019-04-06T18:21:28.314Z,10.60
2019-04-06T18:23:56.372Z,10.37
2019-04-06T18:26:24.443Z,9.43
2019-04-06T18:28:52.754Z,9.77
2019-04-06T18:31:22.646Z,8.50
2019-04-06T18:33:50.795Z,8.80
2019-04-06T18:36:18.879Z,9.33
2019-04-06T18:39:04.026Z,11.63
2019-04-06T18:41:32.119Z,9.97
2019-04-06T18:44:00.387Z,8.43
2019-04-06T18:46:28.482Z,9.47
2019-04-06T18:48:56.758Z,8.87
2019-04-06T18:51:25.917Z,9.93
2019-04-06T18:53:54.031Z,9.27
2019-04-06T18:56:22.146Z,9.40
2019-04-06T18:58:51.309Z,10.47
2019-04-06T19:01:19.549Z,15.13
2019-04-06T19:03:47.664Z,11.03
2019-04-06T19:06:16.209Z,10.17
2019-04-06T19:08:44.584Z,10.17
2019-04-06T19:11:12.678Z,10.73
2019-04-06T19:13:40.807Z,11.37
2019-04-06T19:16:09.407Z,10.40
2019-04-06T19:18:37.518Z,11.47
2019-04-06T19:21:05.567Z,11.60
2019-04-06T19:23:33.626Z,12.67
2019-04-06T19:26:01.949Z,11.30
2019-04-06T19:28:30.055Z,11.37
2019-04-06T19:30:58.538Z,12.43
2019-04-06T19:33:27.255Z,12.23
2019-04-06T19:35:55.309Z,12.77
2019-04-06T19:38:23.454Z,16.33
2019-04-06T19:40:51.497Z,13.13
2019-04-06T19:43:19.587Z,12.63
2019-04-06T19:45:47.657Z,14.50
2019-04-06T19:48:15.702Z,13.40
2019-04-06T19:50:43.880Z,13.77
2019-04-06T19:53:12.372Z,14.07
2019-04-06T19:55:40.913Z,13.00
2019-04-06T19:58:09.179Z,12.77
2019-04-06T20:00:37.275Z,13.73
2019-04-06T20:03:05.566Z,14.60
2019-04-06T20:05:33.831Z,14.07
2019-04-06T20:08:01.908Z,13.70
2019-04-06T20:10:29.936Z,14.80
2019-04-06T20:12:58.301Z,13.73
2019-04-06T20:15:26.474Z,14.37
2019-04-06T20:17:54.849Z,13.80
2019-04-06T20:20:23.260Z,14.70
2019-04-06T20:22:51.577Z,15.73
2019-04-06T20:25:19.713Z,14.73
2019-04-06T20:27:47.798Z,14.27
2019-04-06T20:30:16.151Z,14.03
2019-04-06T20:32:44.703Z,13.87
2019-04-06T20:35:12.834Z,14.17
2019-04-06T20:37:41.114Z,13.40
2019-04-06T20:40:09.656Z,16.33
2019-04-06T20:42:38.251Z,13.67
2019-04-06T20:45:08.245Z,14.07
2019-04-06T20:47:36.490Z,13.97
2019-04-06T20:50:08.098Z,14.07
2019-04-06T20:52:36.169Z,13.03
2019-04-06T20:55:05.094Z,13.97
2019-04-06T20:57:33.146Z,13.00
2019-04-06T21:00:01.962Z,12.57
2019-04-06T21:02:30.138Z,13.40
2019-04-06T21:04:58.492Z,13.13
2019-04-06T21:07:26.626Z,13.53
2019-04-06T21:09:55.075Z,12.73
2019-04-06T21:12:24.055Z,12.10
2019-04-06T21:14:53.488Z,12.97
2019-04-06T21:17:21.875Z,13.27
2019-04-06T21:19:50.576Z,14.07
2019-04-06T21:22:18.682Z,12.73
2019-04-06T21:24:46.738Z,13.17
2019-04-06T21:27:15.029Z,12.87
2019-04-06T21:29:43.259Z,13.30
2019-04-06T21:32:11.634Z,13.97
2019-04-06T21:34:39.698Z,14.40
2019-04-06T21:37:07.747Z,14.50
2019-04-06T21:39:35.951Z,13.40
2019-04-06T21:42:04.474Z,13.73
2019-04-06T21:44:33.264Z,14.77
2019-04-06T21:47:01.298Z,15.17
2019-04-06T21:49:29.346Z,15.30
2019-04-06T21:51:57.419Z,14.60
2019-04-06T21:54:25.466Z,14.30
2019-04-06T21:56:53.550Z,13.43
2019-04-06T21:59:21.578Z,14.40
2019-04-06T22:01:50.262Z,13.80
2019-04-06T22:04:25.882Z,13.60
2019-04-06T22:06:48.183Z,14.10
2019-04-06T22:09:16.441Z,14.33
2019-04-06T22:11:44.601Z,14.47
2019-04-06T22:14:12.665Z,14.00
2019-04-06T22:16:40.874Z,15.03
2019-04-06T22:19:09.591Z,14.27
2019-04-06T22:21:37.718Z,14.07
2019-04-06T22:24:05.779Z,14.83
2019-04-06T22:26:33.954Z,14.53
2019-04-06T22:29:01.999Z,14.87
2019-04-06T22:31:30.654Z,14.03
2019-04-06T22:33:59.437Z,14.60
2019-04-06T22:36:27.712Z,13.97
2019-04-06T22:38:56.246Z,14.83
2019-04-06T22:41:24.291Z,13.20
2019-04-06T22:43:52.527Z,14.33
2019-04-06T22:46:20.598Z,12.90
2019-04-06T22:48:48.642Z,15.07
2019-04-06T22:51:17.364Z,14.40
2019-04-06T22:53:45.503Z,13.77
2019-04-06T22:56:13.557Z,14.87
2019-04-06T22:58:41.621Z,15.00
2019-04-06T23:01:11.677Z,14.87
2019-04-06T23:03:41.390Z,15.43
2019-04-06T23:06:11.086Z,16.13
2019-04-06T23:08:39.367Z,14.30
2019-04-06T23:11:08.003Z,14.60
2019-04-06T23:13:36.108Z,15.57
2019-04-06T23:16:04.672Z,15.70
2019-04-06T23:18:33.347Z,16.10
2019-04-06T23:21:01.447Z,15.70
2019-04-06T23:23:29.511Z,16.50
2019-04-06T23:25:57.562Z,16.13
2019-04-06T23:28:25.658Z,15.43
2019-04-06T23:30:53.746Z,16.13
2019-04-06T23:33:22.109Z,15.00
2019-04-06T23:35:50.727Z,15.43
2019-04-06T23:38:19.040Z,15.30
2019-04-06T23:40:47.179Z,16.57
2019-04-06T23:43:15.270Z,16.20
2019-04-06T23:45:43.324Z,16.93
2019-04-06T23:48:11.988Z,15.83
2019-04-06T23:50:40.644Z,15.00
2019-04-06T23:53:09.087Z,16.70
2019-04-06T23:55:37.529Z,16.77
2019-04-06T23:58:05.646Z,16.40
